Whitestown, New York
Current Conditions -  °F | °C
As of 8:53 AM on Wednesday 26 Nov 2014 (Local Time) from KRME Reporting Station
Overcast Overcast  
Wind Chill: 31°   Ceiling: 3000
Heat Index: 35°   Visibility: 10mi
Dew Point: 24°   Wind: 5mph
Humidity: 64%   Direction: 20°NNE
Pressure: 30.2"   Gusts: NA
Location:  43.1203°N, 75.3249°W
Report Text: KRME 261353Z 02004KT 10SM OVC030 02/M04 A3020 RMK AO2 SLP230 T00171044
Loading
Personal Weather Stations






























Interactive Weather Map New forecast layout! Learn more

10-Day Weather Forecast

Advertisements
Track Severe Weather on mobile